Time;durP1;ratioP1;P1;durP2;ratioP2;P2;SDS_P1;SDS_P2;PMS_P1;PMS_P2;Temp;Humidity;BMP_temperature;BMP_pressure;BME280_temperature;BME280_humidity;BME280_pressure;Samples;Min_cycle;Max_cycle;Signal;HPM_P1;HPM_P2
2023/06/06 00:00:23;;;;;;;8.00;3.77;;;;;;;11.78;53.96;101342.52;1771004;81;21178;-54
2023/06/06 00:03:29;;;;;;;9.23;3.60;;;;;;;11.75;54.04;101340.94;1771049;79;21248;-53
2023/06/06 00:06:38;;;;;;;10.00;3.62;;;;;;;11.72;54.07;101333.53;1771218;80;21204;-52
2023/06/06 00:09:43;;;;;;;6.92;3.55;;;;;;;11.67;54.15;101340.88;1770903;80;21197;-53
2023/06/06 00:12:52;;;;;;;8.50;3.40;;;;;;;11.63;54.22;101342.23;1771642;80;21675;-53
2023/06/06 00:15:57;;;;;;;7.92;3.85;;;;;;;11.62;54.32;101343.73;1764256;80;21335;-53
2023/06/06 00:19:03;;;;;;;8.33;3.80;;;;;;;11.59;54.39;101352.28;1771358;80;21320;-52
2023/06/06 00:22:10;;;;;;;5.70;3.35;;;;;;;11.56;54.46;101352.06;1771206;80;21745;-53
2023/06/06 00:25:16;;;;;;;9.28;3.35;;;;;;;11.55;54.66;101353.09;1771675;80;21395;-53
2023/06/06 00:28:23;;;;;;;8.83;3.72;;;;;;;11.57;54.86;101355.19;1771109;80;21268;-54
2023/06/06 00:31:30;;;;;;;6.55;3.90;;;;;;;11.59;55.00;101349.00;1771014;81;21721;-53
2023/06/06 00:34:37;;;;;;;8.85;3.72;;;;;;;11.59;55.04;101349.00;1740696;81;21754;-53
2023/06/06 00:37:42;;;;;;;8.43;3.55;;;;;;;11.58;55.04;101351.41;1740720;82;21418;-54
2023/06/06 00:40:50;;;;;;;11.18;4.00;;;;;;;11.56;55.02;101351.23;1740720;82;21359;-53
2023/06/06 00:43:57;;;;;;;11.35;4.85;;;;;;;11.53;55.04;101356.50;1740837;81;21370;-53
2023/06/06 00:47:02;;;;;;;9.35;3.72;;;;;;;11.51;55.15;101350.30;1740875;82;21726;-53
2023/06/06 00:50:08;;;;;;;9.23;3.80;;;;;;;11.52;55.32;101349.80;1740648;81;21335;-53
2023/06/06 00:53:15;;;;;;;6.03;3.80;;;;;;;11.52;55.37;101348.44;1740683;82;21366;-53
2023/06/06 00:56:22;;;;;;;9.78;4.05;;;;;;;11.52;55.45;101348.44;1740092;81;22124;-53
2023/06/06 00:59:29;;;;;;;7.55;3.95;;;;;;;11.53;55.54;101361.98;1739961;82;21374;-53
2023/06/06 01:02:37;;;;;;;14.18;4.72;;;;;;;11.57;55.59;101355.68;1740319;82;21895;-53
2023/06/06 01:05:42;;;;;;;8.48;4.25;;;;;;;11.61;55.69;101366.17;1741150;81;21386;-54
2023/06/06 01:08:48;;;;;;;6.35;3.77;;;;;;;11.64;55.69;101357.66;1733039;82;21224;-54
2023/06/06 01:12:25;;;;;;;7.15;3.62;;;;;;;11.66;55.77;101361.11;1740578;82;21884;-54
2023/06/06 01:15:47;;;;;;;9.80;3.47;;;;;;;11.71;55.92;101355.14;1740267;82;21922;-54
2023/06/06 01:18:56;;;;;;;10.85;4.22;;;;;;;11.76;56.06;101358.27;1740672;81;21355;-54
2023/06/06 01:22:04;;;;;;;11.08;4.60;;;;;;;11.82;56.31;101365.36;1740544;81;21342;-55
2023/06/06 01:25:13;;;;;;;14.15;6.72;;;;;;;11.89;56.52;101365.58;1740142;82;21845;-55
2023/06/06 01:28:18;;;;;;;19.75;6.80;;;;;;;11.95;56.63;101366.30;1740703;82;21383;-54
2023/06/06 01:31:24;;;;;;;16.52;6.53;;;;;;;11.98;56.62;101370.97;1740995;82;21347;-54
2023/06/06 01:34:48;;;;;;;17.87;6.05;;;;;;;12.01;56.70;101368.40;1740293;82;21419;-54
2023/06/06 01:38:20;;;;;;;20.05;6.08;;;;;;;12.04;56.76;101363.45;1740489;82;21872;-53
2023/06/06 01:41:28;;;;;;;12.15;5.72;;;;;;;12.10;56.78;101366.58;1740977;81;21331;-53
2023/06/06 01:44:35;;;;;;;11.22;5.20;;;;;;;12.13;56.80;101376.70;1741193;81;21350;-53
2023/06/06 01:47:40;;;;;;;14.33;5.05;;;;;;;12.18;56.94;101374.88;1740539;81;21465;-53
2023/06/06 01:50:46;;;;;;;12.85;4.70;;;;;;;12.22;56.99;101376.25;1741807;79;21347;-52
2023/06/06 01:53:54;;;;;;;11.90;4.28;;;;;;;12.27;57.07;101373.89;1741031;82;21362;-53
2023/06/06 01:57:00;;;;;;;9.33;4.20;;;;;;;12.32;57.11;101376.48;1740649;81;21362;-53
2023/06/06 02:00:08;;;;;;;8.98;3.92;;;;;;;12.39;57.27;101381.68;1740965;81;21193;-53
2023/06/06 02:03:13;;;;;;;12.03;4.45;;;;;;;12.47;57.34;101382.23;1740743;81;21844;-53
2023/06/06 02:06:19;;;;;;;5.28;3.15;;;;;;;12.51;57.37;101378.98;1741416;82;21316;-52
2023/06/06 02:09:26;;;;;;;8.33;3.60;;;;;;;12.58;57.44;101379.19;1740785;82;21198;-53
2023/06/06 02:12:32;;;;;;;14.35;3.90;;;;;;;12.65;57.49;101385.27;1740248;81;21358;-52
2023/06/06 02:15:38;;;;;;;8.08;4.00;;;;;;;12.71;57.51;101388.72;1740824;82;21201;-53
2023/06/06 02:18:44;;;;;;;8.60;3.90;;;;;;;12.76;57.54;101383.59;1741453;82;21205;-53
2023/06/06 02:21:51;;;;;;;9.80;3.87;;;;;;;12.80;57.53;101386.34;1740768;81;21354;-54
2023/06/06 02:24:59;;;;;;;8.40;3.77;;;;;;;12.83;57.45;101398.38;1741083;82;21347;-53
2023/06/06 02:28:07;;;;;;;8.75;3.85;;;;;;;12.86;57.41;101393.08;1740753;81;21405;-53
2023/06/06 02:31:14;;;;;;;11.53;3.95;;;;;;;12.90;57.45;101389.83;1740630;81;21355;-53
2023/06/06 02:34:21;;;;;;;10.25;4.45;;;;;;;12.96;57.57;101386.91;1740539;81;21720;-53
2023/06/06 02:37:28;;;;;;;14.05;5.95;;;;;;;13.03;57.68;101387.47;1740660;82;21395;-53
2023/06/06 02:40:33;;;;;;;21.40;9.98;;;;;;;13.10;57.82;101394.03;1740981;82;21342;-52
2023/06/06 02:43:42;;;;;;;25.62;10.58;;;;;;;13.16;57.87;101391.14;1740669;81;21875;-52
2023/06/06 02:46:47;;;;;;;23.27;9.43;;;;;;;13.21;57.91;101397.84;1734142;82;21379;-53
2023/06/06 02:49:54;;;;;;;42.95;17.20;;;;;;;13.25;57.87;101400.63;1738977;82;21327;-54
2023/06/06 02:53:03;;;;;;;41.23;18.85;;;;;;;13.30;57.93;101399.58;1740711;82;21189;-53
2023/06/06 02:56:10;;;;;;;65.37;27.17;;;;;;;13.35;58.01;101402.69;1740566;81;21350;-54
2023/06/06 02:59:16;;;;;;;57.30;24.50;;;;;;;13.42;58.10;101405.12;1740617;81;21382;-53
2023/06/06 03:02:23;;;;;;;44.90;19.00;;;;;;;13.47;58.13;101403.23;1740476;82;21389;-53
2023/06/06 03:05:32;;;;;;;41.48;18.30;;;;;;;13.50;58.11;101400.14;1740537;82;21359;-53
2023/06/06 03:08:38;;;;;;;47.55;19.75;;;;;;;13.54;58.12;101399.63;1740487;81;21868;-52
2023/06/06 03:11:44;;;;;;;43.42;18.87;;;;;;;13.61;58.22;101398.94;1740574;82;21343;-54
2023/06/06 03:14:50;;;;;;;25.30;11.18;;;;;;;13.68;58.33;101400.86;1740432;82;21859;-52
2023/06/06 03:18:00;;;;;;;21.25;7.50;;;;;;;13.75;58.39;101401.88;1740247;81;21389;-54
2023/06/06 03:21:06;;;;;;;22.82;10.58;;;;;;;13.82;58.50;101400.17;1733454;82;21197;-53
2023/06/06 03:24:13;;;;;;;31.73;11.68;;;;;;;13.92;58.63;101397.24;1740806;81;21343;-53
2023/06/06 03:27:19;;;;;;;28.65;12.03;;;;;;;14.04;58.74;101401.34;1740401;81;21390;-53
2023/06/06 03:30:26;;;;;;;21.42;9.30;;;;;;;14.10;58.77;101397.89;1740372;82;21397;-54
2023/06/06 03:33:38;;;;;;;23.12;9.60;;;;;;;14.16;58.67;101404.95;1740154;82;21351;-53
2023/06/06 03:36:41;;;;;;;16.07;8.08;;;;;;;14.22;58.63;101401.49;1740007;81;21363;-54
2023/06/06 03:39:47;;;;;;;16.73;7.50;;;;;;;14.29;58.61;101397.55;1740027;81;21371;-54
2023/06/06 03:42:52;;;;;;;20.35;8.45;;;;;;;14.33;58.56;101398.94;1740232;82;21390;-53
2023/06/06 03:45:58;;;;;;;18.37;7.50;;;;;;;14.40;58.65;101398.06;1740215;82;21367;-54
2023/06/06 03:49:05;;;;;;;18.92;9.70;;;;;;;14.49;58.72;101392.02;1739843;81;21398;-54
2023/06/06 03:52:12;;;;;;;24.95;10.65;;;;;;;14.57;58.72;101390.63;1739234;81;21370;-53
2023/06/06 03:55:17;;;;;;;32.90;13.20;;;;;;;14.65;58.75;101387.84;1740129;81;21858;-53
2023/06/06 03:58:24;;;;;;;30.55;12.78;;;;;;;14.72;58.74;101388.83;1740037;81;21343;-53
2023/06/06 04:01:31;;;;;;;26.70;12.07;;;;;;;14.80;58.72;101386.91;1740530;81;21359;-53
2023/06/06 04:04:37;;;;;;;24.18;10.10;;;;;;;14.90;58.72;101393.59;1741176;82;21927;-53
2023/06/06 04:07:45;;;;;;;22.67;10.03;;;;;;;14.98;58.73;101391.63;1740508;82;21848;-53
2023/06/06 04:10:51;;;;;;;23.35;7.97;;;;;;;15.06;58.68;101395.41;1740743;81;21315;-53
2023/06/06 04:13:59;;;;;;;21.27;8.73;;;;;;;15.13;58.60;101386.77;1740546;81;21409;-53
2023/06/06 04:17:07;;;;;;;16.17;7.60;;;;;;;15.18;58.52;101394.82;1740480;81;21208;-53
2023/06/06 04:20:14;;;;;;;18.73;7.15;;;;;;;15.25;58.54;101386.17;1740459;81;21446;-54
2023/06/06 04:23:20;;;;;;;15.85;6.70;;;;;;;15.33;58.56;101393.53;1740539;81;21339;-53
2023/06/06 04:26:36;;;;;;;16.95;6.25;;;;;;;15.39;58.53;101388.18;1740442;81;21856;-52
2023/06/06 04:29:42;;;;;;;11.88;6.20;;;;;;;15.47;58.52;101374.84;1740690;81;21882;-53
2023/06/06 04:32:48;;;;;;;16.87;6.50;;;;;;;15.59;58.53;101376.12;1740572;82;21358;-53
2023/06/06 04:35:57;;;;;;;11.75;5.00;;;;;;;15.70;58.52;101383.97;1746945;81;21366;-53
2023/06/06 04:39:06;;;;;;;10.18;4.60;;;;;;;15.83;58.53;101385.59;1769731;80;21161;-54
2023/06/06 04:42:15;;;;;;;7.47;4.35;;;;;;;15.96;58.49;101388.08;1769706;79;21891;-53
2023/06/06 04:45:23;;;;;;;11.90;4.67;;;;;;;16.08;58.41;101392.09;1762094;80;21197;-52
2023/06/06 04:48:31;;;;;;;10.68;4.87;;;;;;;16.18;58.35;101378.89;1768880;81;21732;-52
2023/06/06 04:51:37;;;;;;;8.60;4.25;;;;;;;16.31;58.30;101388.78;1769962;79;21322;-52
2023/06/06 04:54:46;;;;;;;8.48;4.50;;;;;;;16.43;58.26;101380.34;1770299;79;21192;-51
2023/06/06 04:57:52;;;;;;;11.97;4.08;;;;;;;16.57;58.22;101387.49;1749044;81;21320;-53
2023/06/06 05:01:00;;;;;;;7.50;3.95;;;;;;;16.69;58.13;101388.72;1716924;81;21347;-55
2023/06/06 05:04:12;;;;;;;22.90;11.28;;;;;;;16.78;58.10;101393.09;1769165;79;21745;-53
2023/06/06 05:07:24;;;;;;;8.35;4.10;;;;;;;16.87;58.05;101392.80;1735066;81;21265;-53
2023/06/06 05:10:30;;;;;;;9.83;4.90;;;;;;;16.96;57.94;101381.99;1725940;82;21196;-54
2023/06/06 05:13:36;;;;;;;9.38;3.60;;;;;;;17.08;57.92;101380.95;1711524;83;21264;-55
2023/06/06 05:16:46;;;;;;;12.15;4.08;;;;;;;17.21;57.88;101381.12;1766165;81;21208;-56
2023/06/06 05:19:51;;;;;;;10.40;3.85;;;;;;;17.30;57.79;101384.95;1738917;81;21332;-56
2023/06/06 05:22:57;;;;;;;10.18;3.50;;;;;;;17.42;57.72;101376.50;1766136;81;21220;-55
2023/06/06 05:26:07;;;;;;;6.80;3.37;;;;;;;17.58;57.66;101375.41;1722895;82;21228;-55
2023/06/06 05:29:14;;;;;;;9.73;3.77;;;;;;;17.73;57.56;101381.73;1719806;83;21229;-56
2023/06/06 05:32:20;;;;;;;13.05;5.22;;;;;;;17.88;57.43;101379.77;1765542;81;21265;-56
2023/06/06 05:35:28;;;;;;;10.28;3.50;;;;;;;18.01;57.35;101381.80;1766441;81;21184;-55
2023/06/06 05:38:34;;;;;;;8.88;3.47;;;;;;;18.12;57.18;101384.02;1748328;81;21225;-55
2023/06/06 05:41:40;;;;;;;16.10;4.40;;;;;;;18.24;57.11;101385.17;1761202;81;21196;-55
2023/06/06 05:44:50;;;;;;;7.17;3.30;;;;;;;18.37;57.02;101381.99;1765243;79;21743;-56
2023/06/06 05:47:56;;;;;;;7.45;3.12;;;;;;;18.51;56.95;101386.59;1765230;81;21637;-55
2023/06/06 05:51:02;;;;;;;10.38;3.60;;;;;;;18.63;56.83;101388.29;1764929;81;21752;-55
2023/06/06 05:54:10;;;;;;;8.28;3.40;;;;;;;18.77;56.82;101386.78;1764784;78;21710;-55
2023/06/06 05:57:29;;;;;;;12.03;3.33;;;;;;;18.91;56.69;101387.17;1764902;80;21241;-56
2023/06/06 06:00:38;;;;;;;7.05;3.08;;;;;;;19.04;56.54;101378.89;1755343;80;21713;-55
2023/06/06 06:03:48;;;;;;;6.80;3.00;;;;;;;19.17;56.40;101377.56;1756468;79;21757;-55
2023/06/06 06:06:54;;;;;;;7.60;3.55;;;;;;;19.31;56.37;101377.13;1729115;82;21823;-55
2023/06/06 06:09:59;;;;;;;25.12;10.85;;;;;;;19.47;56.31;101368.95;1759257;79;21192;-56
2023/06/06 06:13:06;;;;;;;7.72;3.10;;;;;;;19.62;56.18;101363.53;1747173;80;21260;-55
2023/06/06 06:16:12;;;;;;;12.85;2.98;;;;;;;19.78;56.12;101369.22;1766548;79;21169;-57
2023/06/06 06:19:17;;;;;;;11.03;3.50;;;;;;;19.90;56.02;101365.59;1759949;79;21394;-56
2023/06/06 06:22:23;;;;;;;6.22;3.00;;;;;;;19.98;55.93;101356.22;1746721;80;21212;-56
2023/06/06 06:25:30;;;;;;;13.05;4.35;;;;;;;20.06;55.82;101363.78;1750210;81;21398;-56
2023/06/06 06:28:38;;;;;;;5.53;2.90;;;;;;;20.11;55.70;101364.53;1758483;80;21268;-55
2023/06/06 06:31:47;;;;;;;7.50;3.40;;;;;;;20.13;55.58;101360.48;1762675;81;21794;-55
2023/06/06 06:34:53;;;;;;;8.40;3.08;;;;;;;20.15;55.54;101350.02;1762664;79;21204;-55
2023/06/06 06:37:59;;;;;;;8.08;3.47;;;;;;;20.19;55.49;101349.05;1757733;80;21193;-54
2023/06/06 06:41:04;;;;;;;12.20;3.75;;;;;;;20.23;55.42;101344.80;1768407;79;21241;-55
2023/06/06 06:44:10;;;;;;;7.80;3.10;;;;;;;20.26;55.33;101342.44;1782567;79;21380;-54
2023/06/06 06:47:17;;;;;;;12.58;3.42;;;;;;;20.32;55.25;101350.44;1763230;79;21197;-54
2023/06/06 06:50:23;;;;;;;18.65;4.87;;;;;;;20.38;55.13;101349.57;1767476;80;21809;-56
2023/06/06 06:53:30;;;;;;;10.82;3.42;;;;;;;20.44;55.07;101348.70;1749968;80;21406;-53
2023/06/06 06:56:36;;;;;;;10.48;2.75;;;;;;;20.51;54.96;101346.78;1740002;81;21356;-55
2023/06/06 06:59:42;;;;;;;5.47;2.72;;;;;;;20.60;54.70;101346.33;1763142;80;21371;-56
2023/06/06 07:02:49;;;;;;;6.47;3.27;;;;;;;20.70;54.45;101341.17;1769344;80;21251;-55
2023/06/06 07:05:59;;;;;;;7.53;2.45;;;;;;;20.78;54.22;101345.64;1763733;80;21204;-53
2023/06/06 07:09:07;;;;;;;7.50;2.65;;;;;;;20.88;54.07;101342.39;1768995;80;21408;-55
2023/06/06 07:12:20;;;;;;;17.77;12.53;;;;;;;20.97;53.90;101334.14;1762206;79;21370;-55
2023/06/06 07:15:26;;;;;;;12.10;4.58;;;;;;;21.07;53.69;101345.67;1738994;82;21240;-55
2023/06/06 07:18:33;;;;;;;7.08;2.80;;;;;;;21.16;53.47;101339.63;1746054;81;21239;-55
2023/06/06 07:21:40;;;;;;;7.03;3.08;;;;;;;21.24;53.22;101332.42;1747832;79;21211;-54
2023/06/06 07:24:46;;;;;;;7.75;3.60;;;;;;;21.32;52.99;101336.34;1762166;80;21888;-58
2023/06/06 07:27:53;;;;;;;6.47;3.00;;;;;;;21.42;52.70;101335.30;1768718;80;21251;-54
2023/06/06 07:31:00;;;;;;;8.08;2.33;;;;;;;21.51;52.40;101335.37;1760624;80;21718;-52
2023/06/06 07:34:06;;;;;;;8.45;3.35;;;;;;;21.61;52.14;101330.70;1770018;79;21282;-56
2023/06/06 07:37:13;;;;;;;3.85;2.20;;;;;;;21.70;51.85;101330.20;1766692;80;21208;-56
2023/06/06 07:40:22;;;;;;;3.62;1.65;;;;;;;21.75;51.51;101330.42;1768689;80;21231;-55
2023/06/06 07:43:35;;;;;;;7.37;1.90;;;;;;;21.83;51.20;101323.17;1748543;80;21431;-56
2023/06/06 07:46:49;;;;;;;5.42;1.80;;;;;;;21.93;50.93;101328.21;1763758;79;21726;-53
2023/06/06 07:49:56;;;;;;;6.12;1.75;;;;;;;22.04;50.59;101329.73;1769709;80;21200;-56
2023/06/06 07:53:05;;;;;;;5.08;1.50;;;;;;;22.11;50.24;101327.75;1760326;79;21955;-57
2023/06/06 07:56:16;;;;;;;4.97;1.45;;;;;;;22.16;49.88;101326.53;1761986;79;21722;-55
2023/06/06 07:59:22;;;;;;;2.85;1.70;;;;;;;22.21;49.61;101323.88;1770816;79;21217;-55
2023/06/06 08:02:28;;;;;;;4.30;1.70;;;;;;;22.28;49.18;101322.99;1762121;81;22192;-59
2023/06/06 08:05:36;;;;;;;6.42;1.70;;;;;;;22.37;48.83;101320.21;1746013;80;21570;-55
2023/06/06 08:08:43;;;;;;;5.80;1.70;;;;;;;22.45;48.51;101317.12;1759772;79;21823;-55
2023/06/06 08:11:49;;;;;;;5.87;1.80;;;;;;;22.55;48.24;101315.53;1763974;80;21240;-55
2023/06/06 08:14:55;;;;;;;4.78;1.72;;;;;;;22.67;47.92;101319.81;1754510;80;21193;-54
2023/06/06 08:18:11;;;;;;;4.50;1.65;;;;;;;22.81;47.59;101315.77;1768410;80;21212;-55
2023/06/06 08:21:17;;;;;;;6.20;1.80;;;;;;;22.97;47.22;101302.58;1735978;80;21239;-52
2023/06/06 08:24:23;;;;;;;7.83;2.22;;;;;;;23.09;46.88;101300.69;1769317;80;22159;-56
2023/06/06 08:27:31;;;;;;;5.42;2.02;;;;;;;23.10;46.49;101302.41;1749842;80;21864;-55
2023/06/06 08:30:38;;;;;;;3.62;2.08;;;;;;;23.06;46.08;101305.34;1765573;81;21263;-55
2023/06/06 08:33:46;;;;;;;6.97;3.50;;;;;;;23.11;45.84;101301.31;1739697;80;21268;-55
2023/06/06 08:36:51;;;;;;;5.80;2.02;;;;;;;23.28;45.63;101296.80;1764872;80;21193;-56
2023/06/06 08:39:57;;;;;;;8.35;2.08;;;;;;;23.54;45.47;101291.70;1765625;80;21189;-56
2023/06/06 08:43:03;;;;;;;5.15;1.70;;;;;;;23.85;45.30;101291.10;1767897;79;21276;-55
2023/06/06 08:46:07;;;;;;;5.35;1.80;;;;;;;24.11;44.88;101286.47;1762705;79;21730;-55
2023/06/06 08:49:13;;;;;;;3.10;1.47;;;;;;;24.27;44.43;101289.94;1763349;79;22089;-55
2023/06/06 08:52:13;;;;;;;4.92;1.70;;;;;;;24.33;43.99;101288.42;1751771;81;21784;-61
2023/06/06 08:55:06;;;;;;;4.10;1.80;;;;;;;24.34;43.55;101294.31;1768214;80;21588;-55
2023/06/06 08:58:01;;;;;;;3.70;1.50;;;;;;;24.38;43.14;101287.69;1767109;80;21344;-56
2023/06/06 09:01:10;;;;;;;3.55;1.70;;;;;;;24.38;42.74;101279.29;1764212;79;21262;-52
2023/06/06 09:04:18;;;;;;;5.28;1.80;;;;;;;24.52;42.43;101270.94;1766214;79;21240;-51
2023/06/06 09:07:25;;;;;;;6.83;3.50;;;;;;;24.75;42.21;101260.56;1766370;79;21824;-56
2023/06/06 09:10:31;;;;;;;4.92;1.70;;;;;;;24.96;41.98;101258.50;1768296;80;21259;-52
2023/06/06 09:13:37;;;;;;;4.97;2.37;;;;;;;25.01;41.53;101264.22;1769294;80;21268;-51
2023/06/06 09:16:47;;;;;;;3.37;1.70;;;;;;;25.00;41.09;101272.34;1770344;80;21472;-54
2023/06/06 09:19:59;;;;;;;2.22;1.50;;;;;;;24.98;40.66;101266.12;1763584;80;21295;-51
2023/06/06 09:23:07;;;;;;;3.27;1.70;;;;;;;25.08;40.55;101255.09;1768904;79;21212;-50
2023/06/06 09:26:23;;;;;;;3.45;1.80;;;;;;;25.38;40.35;101252.62;1769509;80;21196;-52
2023/06/06 09:29:26;;;;;;;5.97;1.85;;;;;;;25.60;39.99;101253.59;1754403;81;21296;-52
2023/06/06 09:32:36;;;;;;;8.25;2.05;;;;;;;25.68;39.49;101254.05;1769635;80;21216;-51
2023/06/06 09:35:44;;;;;;;3.52;1.70;;;;;;;25.64;39.09;101248.62;1739037;81;21923;-52
2023/06/06 09:38:46;;;;;;;2.85;1.70;;;;;;;25.57;38.72;101249.36;1705243;84;21255;-53
2023/06/06 09:41:42;;;;;;;3.58;1.80;;;;;;;25.48;38.29;101248.62;1692227;85;22094;-53
2023/06/06 09:44:28;;;;;;;1.95;1.32;;;;;;;25.39;37.95;101243.11;1657906;85;21244;-51
2023/06/06 09:47:22;;;;;;;6.72;1.70;;;;;;;25.34;37.78;101238.83;1690357;84;21348;-53
2023/06/06 09:50:08;;;;;;;3.72;2.05;;;;;;;25.37;37.56;101240.55;1690109;84;21344;-49
2023/06/06 09:53:02;;;;;;;3.15;1.52;;;;;;;25.56;37.52;101232.21;1690168;85;21422;-50
2023/06/06 09:56:13;;;;;;;4.30;1.40;;;;;;;25.81;37.34;101229.02;1716982;82;21205;-51
2023/06/06 09:59:18;;;;;;;1.95;1.42;;;;;;;25.98;37.09;101232.11;1763843;77;21244;-48
2023/06/06 10:02:26;;;;;;;3.60;1.60;;;;;;;26.12;36.79;101232.08;1769441;79;21370;-53
2023/06/06 10:05:33;;;;;;;3.25;1.87;;;;;;;26.20;36.51;101225.17;1758225;80;21891;-53
2023/06/06 10:08:40;;;;;;;11.08;1.62;;;;;;;26.23;36.27;101226.05;1758853;80;21387;-53
2023/06/06 10:11:52;;;;;;;2.15;1.45;;;;;;;26.24;36.01;101225.80;1743211;81;21190;-54
2023/06/06 10:14:58;;;;;;;3.27;1.50;;;;;;;26.29;35.81;101229.27;1758483;81;21366;-55
2023/06/06 10:18:05;;;;;;;3.92;1.75;;;;;;;26.28;35.52;101221.38;1769789;80;21747;-49
2023/06/06 10:21:11;;;;;;;4.20;1.65;;;;;;;26.24;35.20;101229.18;1766393;79;21691;-48
2023/06/06 10:24:19;;;;;;;3.80;1.90;;;;;;;26.06;34.98;101225.23;1757626;81;21393;-47
2023/06/06 10:27:30;;;;;;;3.20;1.60;;;;;;;26.12;34.97;101227.02;1757294;80;21263;-46
2023/06/06 10:30:55;;;;;;;3.27;1.50;;;;;;;26.18;34.82;101223.16;1763231;80;21776;-49
2023/06/06 10:34:06;;;;;;;3.60;1.65;;;;;;;26.29;34.76;101234.88;1767344;79;21212;-47
2023/06/06 10:37:26;;;;;;;3.95;1.82;;;;;;;26.47;34.69;101216.30;1767962;81;21185;-46
2023/06/06 10:40:33;;;;;;;5.90;1.60;;;;;;;26.61;34.37;101216.20;1765641;79;21243;-46
2023/06/06 10:43:57;;;;;;;2.98;1.70;;;;;;;26.62;34.02;101217.92;1769252;79;21978;-46
2023/06/06 10:47:32;;;;;;;7.05;1.80;;;;;;;26.67;33.83;101218.00;1735736;82;21192;-47
2023/06/06 10:50:38;;;;;;;2.83;1.45;;;;;;;26.96;33.75;101217.23;1734427;82;21263;-49
2023/06/06 10:53:46;;;;;;;6.65;1.60;;;;;;;27.33;33.65;101219.66;1741780;79;21561;-46
2023/06/06 10:57:00;;;;;;;2.75;1.52;;;;;;;27.45;33.25;101212.75;1754239;80;21923;-46
2023/06/06 11:00:06;;;;;;;2.35;1.30;;;;;;;27.37;32.82;101205.38;1768203;79;21777;-48
2023/06/06 11:03:30;;;;;;;2.90;1.62;;;;;;;27.19;32.51;101206.56;1769546;80;21769;-47
2023/06/06 11:06:38;;;;;;;5.57;1.50;;;;;;;27.08;32.32;101211.78;1771018;79;21550;-47
2023/06/06 11:09:44;;;;;;;2.08;1.40;;;;;;;26.94;32.08;101218.91;1767652;79;21791;-55
2023/06/06 11:12:53;;;;;;;5.08;1.60;;;;;;;26.81;31.91;101220.73;1768198;79;21758;-53
2023/06/06 11:16:03;;;;;;;4.40;2.52;;;;;;;26.70;31.79;101221.72;1741131;80;21213;-57
2023/06/06 11:19:24;;;;;;;2.87;1.65;;;;;;;26.62;31.62;101206.69;1771921;79;21220;-58
2023/06/06 11:22:40;;;;;;;4.75;1.70;;;;;;;26.51;31.45;101206.27;1763752;79;21757;-56
2023/06/06 11:25:49;;;;;;;3.15;1.62;;;;;;;26.32;31.24;101211.89;1751501;79;21407;-57
2023/06/06 11:28:56;;;;;;;7.40;2.87;;;;;;;26.32;31.25;101209.08;1750824;79;21257;-57
2023/06/06 11:32:20;;;;;;;3.87;1.40;;;;;;;26.50;31.32;101212.97;1754269;80;21154;-52
2023/06/06 11:35:32;;;;;;;3.45;1.80;;;;;;;26.83;31.35;101202.20;1755406;81;21294;-53
2023/06/06 11:38:40;;;;;;;8.78;3.37;;;;;;;26.98;31.17;101207.44;1749112;81;21189;-52
2023/06/06 11:41:52;;;;;;;3.15;1.72;;;;;;;27.03;31.02;101206.10;1761882;80;21750;-53
2023/06/06 11:45:04;;;;;;;4.22;1.50;;;;;;;27.03;30.88;101204.70;1759472;80;21177;-56
2023/06/06 11:48:09;;;;;;;6.62;1.87;;;;;;;27.04;30.75;101216.22;1767224;80;22128;-58
2023/06/06 11:51:23;;;;;;;3.60;1.95;;;;;;;26.99;30.53;101206.31;1753951;80;21177;-57
2023/06/06 11:54:29;;;;;;;3.25;2.02;;;;;;;26.81;30.31;101205.83;1767526;81;21605;-59
2023/06/06 11:57:35;;;;;;;3.22;1.75;;;;;;;26.66;30.22;101205.62;1768310;80;21244;-56
2023/06/06 12:00:42;;;;;;;2.72;1.70;;;;;;;26.57;30.17;101209.42;1760810;80;21262;-58
2023/06/06 12:03:48;;;;;;;2.67;1.47;;;;;;;26.57;30.17;101204.35;1680712;83;21223;-56
2023/06/06 12:06:55;;;;;;;6.37;1.42;;;;;;;26.69;30.19;101206.53;1723840;81;21188;-56
2023/06/06 12:10:03;;;;;;;3.92;1.57;;;;;;;26.67;30.05;101200.31;1706911;82;21192;-55
2023/06/06 12:13:08;;;;;;;2.90;1.82;;;;;;;26.56;29.87;101190.02;1725541;81;21292;-56
2023/06/06 12:16:15;;;;;;;5.53;1.40;;;;;;;26.47;29.80;101188.22;1725148;82;21273;-60
2023/06/06 12:19:26;;;;;;;1.98;1.40;;;;;;;26.57;29.88;101190.30;1723760;82;21270;-56
2023/06/06 12:22:41;;;;;;;8.35;2.00;;;;;;;26.62;29.80;101197.41;1727099;81;21843;-57
2023/06/06 12:25:47;;;;;;;1.95;1.50;;;;;;;26.58;29.69;101190.59;1727970;82;21195;-57
2023/06/06 12:29:09;;;;;;;6.00;1.67;;;;;;;26.57;29.63;101193.97;1732724;81;21251;-57
2023/06/06 12:32:31;;;;;;;4.60;1.65;;;;;;;26.47;29.56;101188.22;1730384;82;21278;-55
2023/06/06 12:35:42;;;;;;;4.28;1.47;;;;;;;26.43;29.48;101187.05;1733204;81;21831;-55
2023/06/06 12:38:48;;;;;;;2.95;1.40;;;;;;;26.50;29.44;101183.48;1735385;81;21211;-58
2023/06/06 12:41:53;;;;;;;5.08;1.72;;;;;;;26.59;29.41;101184.74;1729591;81;21286;-56
2023/06/06 12:45:00;;;;;;;3.77;1.60;;;;;;;26.64;29.34;101182.00;1722898;80;21195;-59
2023/06/06 12:48:08;;;;;;;5.85;1.70;;;;;;;26.64;29.25;101178.33;1723791;81;21480;-56
2023/06/06 12:51:18;;;;;;;5.30;1.80;;;;;;;26.74;29.19;101177.92;1720558;81;21308;-56
2023/06/06 12:54:25;;;;;;;3.27;1.52;;;;;;;26.89;29.09;101168.28;1730103;81;21756;-57
2023/06/06 12:57:30;;;;;;;2.40;1.42;;;;;;;27.02;28.99;101162.22;1728166;81;21262;-56
2023/06/06 13:00:38;;;;;;;2.80;1.70;;;;;;;27.19;28.97;101160.72;1722622;81;21823;-58
2023/06/06 13:03:45;;;;;;;4.80;1.77;;;;;;;27.32;28.87;101155.52;1750990;79;21539;-56
2023/06/06 13:06:55;;;;;;;4.30;1.60;;;;;;;27.40;28.73;101157.02;1757535;79;22179;-56
2023/06/06 13:10:06;;;;;;;7.28;1.77;;;;;;;27.31;28.48;101151.02;1754287;79;21804;-56
2023/06/06 13:13:15;;;;;;;4.00;1.85;;;;;;;27.23;28.39;101149.21;1781234;79;21216;-57
2023/06/06 13:16:28;;;;;;;3.87;2.00;;;;;;;27.11;28.29;101145.19;1764659;79;21189;-56
2023/06/06 13:19:37;;;;;;;10.25;2.00;;;;;;;26.96;28.22;101145.01;1760815;80;21741;-55
2023/06/06 13:22:43;;;;;;;7.03;2.08;;;;;;;26.87;28.16;101146.61;1766135;79;21291;-53
2023/06/06 13:26:03;;;;;;;6.30;1.80;;;;;;;26.78;28.09;101140.31;1750838;79;21971;-55
2023/06/06 13:29:27;;;;;;;2.83;1.80;;;;;;;26.69;28.05;101143.31;1752952;81;21736;-57
2023/06/06 13:32:35;;;;;;;6.75;2.40;;;;;;;26.61;28.05;101140.36;1757665;79;21300;-55
2023/06/06 13:35:42;;;;;;;2.83;1.65;;;;;;;26.55;28.01;101141.41;1761451;80;22106;-56
2023/06/06 13:38:52;;;;;;;2.33;1.55;;;;;;;26.51;28.02;101136.04;1768367;79;21376;-55
2023/06/06 13:41:58;;;;;;;2.37;1.70;;;;;;;26.47;27.99;101129.23;1759159;81;21559;-56
2023/06/06 13:45:05;;;;;;;9.10;4.83;;;;;;;26.42;27.96;101130.56;1758895;81;21240;-56
2023/06/06 13:48:11;;;;;;;5.87;2.85;;;;;;;26.41;27.97;101133.09;1765879;79;21273;-56
2023/06/06 13:51:18;;;;;;;4.97;2.20;;;;;;;26.42;28.02;101130.56;1777997;79;21724;-56
2023/06/06 13:54:23;;;;;;;6.08;2.58;;;;;;;26.40;27.96;101130.83;1765081;81;21749;-55
2023/06/06 13:57:29;;;;;;;5.87;2.42;;;;;;;26.40;27.99;101124.39;1778355;80;21232;-57
2023/06/06 14:00:33;;;;;;;17.35;13.40;;;;;;;26.36;28.03;101121.25;1757959;79;21459;-58
2023/06/06 14:03:40;;;;;;;7.78;3.62;;;;;;;26.36;28.02;101114.77;1742568;81;21784;-58
2023/06/06 14:06:47;;;;;;;7.28;2.45;;;;;;;26.43;28.01;101116.84;1738406;82;21177;-57
2023/06/06 14:09:53;;;;;;;3.60;2.00;;;;;;;26.66;28.07;101115.71;1680371;84;21203;-58
2023/06/06 14:13:01;;;;;;;4.20;1.82;;;;;;;26.91;28.14;101106.19;1704149;83;21228;-57
2023/06/06 14:16:10;;;;;;;4.00;2.00;;;;;;;27.05;28.07;101100.41;1766776;81;21735;-58
2023/06/06 14:19:34;;;;;;;6.03;1.75;;;;;;;27.25;28.05;101102.85;1767074;80;21173;-59
2023/06/06 14:22:26;;;;;;;3.42;2.30;;;;;;;27.35;27.96;101100.72;1738918;82;21177;-59
2023/06/06 14:25:33;;;;;;;4.72;1.80;;;;;;;27.38;27.95;101093.14;1704567;83;21211;-57
2023/06/06 14:28:40;;;;;;;5.10;2.15;;;;;;;27.45;27.84;101088.98;1705020;84;21695;-59